createdAt,value
2022-10-19T00:01:17.869Z,97943.50
2022-10-19T00:06:27.373Z,97945.44
2022-10-19T00:09:01.107Z,97946.04
2022-10-19T00:11:30.454Z,97943.84
2022-10-19T00:14:00.349Z,97944.13
2022-10-19T00:16:31.187Z,97948.45
2022-10-19T00:19:01.509Z,97945.89
2022-10-19T00:21:30.095Z,97942.78
2022-10-19T00:23:58.129Z,97939.79
2022-10-19T00:26:26.961Z,97936.80
2022-10-19T00:28:58.638Z,97933.10
2022-10-19T00:31:27.091Z,97931.66
2022-10-19T00:33:58.823Z,97931.40
2022-10-19T00:36:30.643Z,97926.85
2022-10-19T00:39:00.227Z,97924.27
2022-10-19T00:41:30.707Z,97924.66
2022-10-19T00:44:01.588Z,97921.72
2022-10-19T00:46:38.688Z,97923.11
2022-10-19T00:49:11.272Z,97915.66
2022-10-19T00:51:42.068Z,97908.44
2022-10-19T00:54:11.892Z,97908.59
2022-10-19T00:56:44.265Z,97909.94
2022-10-19T00:59:16.570Z,97908.77
2022-10-19T01:01:45.862Z,97905.29
2022-10-19T01:04:14.387Z,97899.23
2022-10-19T01:06:42.746Z,97896.59
2022-10-19T01:09:10.751Z,97896.48
2022-10-19T01:11:41.504Z,97895.69
2022-10-19T01:14:28.236Z,97896.29
2022-10-19T01:17:05.401Z,97898.45
2022-10-19T01:19:58.249Z,97898.51
2022-10-19T01:22:41.583Z,97895.13
2022-10-19T01:25:31.776Z,97891.48
2022-10-19T01:28:33.296Z,97886.88
2022-10-19T01:31:19.628Z,97884.30
2022-10-19T01:34:11.014Z,97883.55
2022-10-19T01:36:47.415Z,97881.69
2022-10-19T01:39:33.626Z,97880.23
2022-10-19T01:42:23.291Z,97874.39
2022-10-19T01:45:04.223Z,97874.56
2022-10-19T01:48:11.048Z,97880.61
2022-10-19T01:50:49.050Z,97879.45
2022-10-19T01:53:19.838Z,97878.00
2022-10-19T01:55:51.400Z,97874.68
2022-10-19T01:58:25.348Z,97873.06
2022-10-19T02:00:55.886Z,97866.30
2022-10-19T02:03:25.990Z,97859.55
2022-10-19T02:05:55.400Z,97857.09
2022-10-19T02:08:28.181Z,97858.37
2022-10-19T02:10:58.214Z,97857.14
2022-10-19T02:13:29.308Z,97857.31
2022-10-19T02:16:03.924Z,97858.86
2022-10-19T02:18:37.606Z,97853.13
2022-10-19T02:21:06.810Z,97847.76
2022-10-19T02:23:35.584Z,97851.94
2022-10-19T02:26:04.559Z,97854.09
2022-10-19T02:28:33.255Z,97858.54
2022-10-19T02:31:05.091Z,97863.30
2022-10-19T02:33:33.382Z,97867.08
2022-10-19T02:36:01.828Z,97871.27
2022-10-19T02:38:30.340Z,97874.91
2022-10-19T02:41:24.628Z,97875.55
2022-10-19T02:44:01.147Z,97875.92
2022-10-19T02:46:36.445Z,97872.33
2022-10-19T02:49:06.870Z,97868.70
2022-10-19T02:51:55.217Z,97866.59
2022-10-19T02:54:24.513Z,97869.33
2022-10-19T02:56:52.810Z,97870.39
2022-10-19T02:59:20.908Z,97873.94
2022-10-19T03:01:48.770Z,97872.00
2022-10-19T03:04:17.257Z,97870.67
2022-10-19T03:06:45.596Z,97866.43
2022-10-19T03:09:13.566Z,97865.00
2022-10-19T03:11:41.536Z,97863.27
2022-10-19T03:14:09.470Z,97866.98
2022-10-19T03:16:37.468Z,97865.58
2022-10-19T03:19:05.438Z,97870.73
2022-10-19T03:21:35.044Z,97870.52
2022-10-19T03:24:03.222Z,97870.66
2022-10-19T03:26:31.202Z,97870.29
2022-10-19T03:28:59.185Z,97865.73
2022-10-19T03:31:27.282Z,97859.83
2022-10-19T03:33:55.341Z,97859.73
2022-10-19T03:36:27.290Z,97856.56
2022-10-19T03:39:00.686Z,97852.06
2022-10-19T03:41:32.833Z,97856.40
2022-10-19T03:46:34.740Z,97846.00
2022-10-19T03:49:04.013Z,97844.95
2022-10-19T03:51:33.107Z,97843.70
2022-10-19T03:54:02.205Z,97844.77
2022-10-19T03:56:32.130Z,97844.08
2022-10-19T03:59:01.867Z,97846.81
2022-10-19T04:01:42.188Z,97843.70
2022-10-19T04:04:14.416Z,97842.69
2022-10-19T04:06:45.500Z,97839.64
2022-10-19T04:09:15.825Z,97842.58
2022-10-19T04:11:44.181Z,97841.30
2022-10-19T04:14:22.710Z,97842.80
2022-10-19T04:17:02.162Z,97838.72
2022-10-19T04:19:31.152Z,97832.13
2022-10-19T04:21:59.227Z,97828.84
2022-10-19T04:24:28.124Z,97830.83
2022-10-19T04:26:56.881Z,97825.31
2022-10-19T04:29:29.619Z,97820.82
2022-10-19T04:31:59.636Z,97811.64
2022-10-19T04:34:27.880Z,97808.70
2022-10-19T04:36:59.474Z,97806.59
2022-10-19T04:39:27.815Z,97802.85
2022-10-19T04:41:55.783Z,97798.71
2022-10-19T04:46:56.635Z,97799.04
2022-10-19T04:49:24.516Z,97799.25
2022-10-19T04:51:52.575Z,97801.55
2022-10-19T04:54:20.427Z,97807.52
2022-10-19T04:56:48.720Z,97804.20
2022-10-19T04:59:16.687Z,97806.16
2022-10-19T05:01:47.315Z,97811.59
2022-10-19T05:04:15.600Z,97811.42
2022-10-19T05:06:43.929Z,97810.29
2022-10-19T05:09:12.150Z,97812.17
2022-10-19T05:11:40.161Z,97807.45
2022-10-19T05:14:08.859Z,97806.96
2022-10-19T05:16:36.832Z,97809.36
2022-10-19T05:19:05.002Z,97803.13
2022-10-19T05:21:33.330Z,97799.94
2022-10-19T05:24:01.301Z,97798.09
2022-10-19T05:26:30.412Z,97801.65
2022-10-19T05:29:01.848Z,97804.79
2022-10-19T05:31:33.016Z,97808.78
2022-10-19T05:34:01.535Z,97808.54
2022-10-19T05:36:35.062Z,97806.23
2022-10-19T05:39:07.139Z,97801.67
2022-10-19T05:41:37.393Z,97801.23
2022-10-19T05:44:06.354Z,97804.23
2022-10-19T05:46:34.764Z,97804.34
2022-10-19T05:49:03.932Z,97804.84
2022-10-19T05:51:32.004Z,97809.66
2022-10-19T05:53:59.975Z,97813.61
2022-10-19T05:56:29.903Z,97818.05
2022-10-19T05:59:04.527Z,97814.73
2022-10-19T06:01:33.857Z,97812.41
2022-10-19T06:04:03.622Z,97809.20
2022-10-19T06:06:31.893Z,97809.65
2022-10-19T06:09:00.662Z,97808.33
2022-10-19T06:11:31.437Z,97805.39
2022-10-19T06:14:01.047Z,97808.42
2022-10-19T06:16:31.162Z,97816.83
2022-10-19T06:19:00.260Z,97819.29
2022-10-19T06:21:30.992Z,97817.10
2022-10-19T06:24:02.615Z,97814.84
2022-10-19T06:26:33.153Z,97818.17
2022-10-19T06:29:02.881Z,97818.64
2022-10-19T06:31:32.999Z,97820.74
2022-10-19T06:34:01.498Z,97823.27
2022-10-19T06:36:31.278Z,97821.49
2022-10-19T06:39:01.933Z,97821.79
2022-10-19T06:41:31.468Z,97812.95
2022-10-19T06:44:06.500Z,97813.50
2022-10-19T06:46:34.405Z,97813.98
2022-10-19T06:49:03.328Z,97809.48
2022-10-19T06:51:34.242Z,97808.09
2022-10-19T06:54:02.517Z,97809.34
2022-10-19T06:56:30.353Z,97811.81
2022-10-19T06:59:02.770Z,97812.42
2022-10-19T07:01:30.849Z,97809.20
2022-10-19T07:03:59.035Z,97807.30
2022-10-19T07:06:28.700Z,97804.25
2022-10-19T07:08:56.670Z,97805.63
2022-10-19T07:11:24.746Z,97803.08
2022-10-19T07:13:53.680Z,97800.89
2022-10-19T07:16:22.245Z,97799.48
2022-10-19T07:18:52.255Z,97803.84
2022-10-19T07:21:22.131Z,97804.51
2022-10-19T07:23:50.268Z,97800.63
2022-10-19T07:26:23.909Z,97796.38
2022-10-19T07:28:54.067Z,97792.77
2022-10-19T07:31:24.488Z,97790.31
2022-10-19T07:33:54.790Z,97789.03
2022-10-19T07:36:24.116Z,97785.50
2022-10-19T07:38:52.491Z,97783.21
2022-10-19T07:41:23.453Z,97780.34
2022-10-19T07:43:52.353Z,97783.00
2022-10-19T07:58:36.625Z,97773.02
2022-10-19T08:01:07.429Z,97767.38
2022-10-19T08:06:24.801Z,97753.59
2022-10-19T08:08:54.464Z,97743.63
2022-10-19T08:11:32.644Z,97740.44
2022-10-19T08:14:03.366Z,97743.83
2022-10-19T08:16:37.589Z,97740.27
2022-10-19T08:19:08.444Z,97738.41
2022-10-19T08:21:38.028Z,97737.65
2022-10-19T08:24:07.112Z,97734.59
2022-10-19T08:26:38.421Z,97726.79
2022-10-19T08:29:10.208Z,97726.46
2022-10-19T08:31:38.771Z,97728.43
2022-10-19T08:34:07.383Z,97731.77
2022-10-19T08:36:36.198Z,97734.41
2022-10-19T08:39:07.552Z,97736.19
2022-10-19T08:42:04.977Z,97735.91
2022-10-19T08:44:47.870Z,97741.02
2022-10-19T08:47:23.545Z,97743.16
2022-10-19T08:49:52.743Z,97738.56
2022-10-19T08:52:27.718Z,97740.38
2022-10-19T08:55:01.080Z,97738.31
2022-10-19T08:58:07.555Z,97740.05
2022-10-19T09:00:48.016Z,97737.11
2022-10-19T09:03:27.163Z,97738.66
2022-10-19T09:06:34.727Z,97739.51
2022-10-19T09:09:03.228Z,97741.28
2022-10-19T09:11:38.961Z,97738.23
2022-10-19T09:14:17.777Z,97740.36
2022-10-19T09:16:46.673Z,97737.61
2022-10-19T09:19:29.400Z,97735.18
2022-10-19T09:22:08.522Z,97736.78
2022-10-19T09:24:36.489Z,97736.35
2022-10-19T09:27:10.092Z,97738.90
2022-10-19T09:29:58.641Z,97740.16
2022-10-19T09:32:38.760Z,97740.77
2022-10-19T09:35:22.223Z,97740.08
2022-10-19T09:37:51.627Z,97742.35
2022-10-19T09:40:23.109Z,97742.53
2022-10-19T09:42:57.099Z,97740.06
2022-10-19T09:45:34.279Z,97736.34
2022-10-19T09:48:17.653Z,97734.10
2022-10-19T09:50:46.400Z,97733.39
2022-10-19T09:53:23.376Z,97736.87
2022-10-19T09:55:59.134Z,97730.02
2022-10-19T09:58:32.127Z,97733.89
2022-10-19T10:01:03.408Z,97735.48
2022-10-19T10:03:40.717Z,97735.44
2022-10-19T10:06:13.538Z,97733.19
2022-10-19T10:08:58.973Z,97729.96
2022-10-19T10:11:37.861Z,97726.45
2022-10-19T10:14:20.987Z,97720.02
2022-10-19T10:16:54.262Z,97719.95
2022-10-19T10:19:28.561Z,97722.53
2022-10-19T10:21:58.363Z,97718.86
2022-10-19T10:24:26.265Z,97716.15
2022-10-19T10:27:25.768Z,97715.40
2022-10-19T10:29:57.564Z,97709.29
2022-10-19T10:32:26.680Z,97705.25
2022-10-19T10:35:06.365Z,97701.77
2022-10-19T10:37:42.839Z,97701.34
2022-10-19T10:40:32.513Z,97700.09
2022-10-19T10:43:13.284Z,97698.46
2022-10-19T10:45:53.069Z,97697.30
2022-10-19T10:48:28.792Z,97695.88
2022-10-19T10:50:57.880Z,97687.69
2022-10-19T10:53:43.588Z,97680.79
2022-10-19T10:56:25.627Z,97682.31
2022-10-19T10:59:06.633Z,97681.95
2022-10-19T11:02:01.452Z,97680.23
2022-10-19T11:04:36.986Z,97681.69
2022-10-19T11:07:19.967Z,97679.23
2022-10-19T11:09:59.854Z,97675.48
2022-10-19T11:12:42.183Z,97675.36
2022-10-19T11:15:13.511Z,97671.08
2022-10-19T11:17:52.292Z,97667.90
2022-10-19T11:20:21.223Z,97655.50
2022-10-19T11:23:00.848Z,97654.45
2022-10-19T11:26:10.813Z,97656.00
2022-10-19T11:29:08.999Z,97651.77
2022-10-19T11:31:51.617Z,97648.52
2022-10-19T11:34:44.475Z,97645.60
2022-10-19T11:37:28.304Z,97639.37
2022-10-19T11:40:13.994Z,97640.63
2022-10-19T11:43:07.147Z,97633.77
2022-10-19T11:45:50.691Z,97627.68
2022-10-19T11:48:39.341Z,97622.96
2022-10-19T11:51:36.909Z,97625.02
2022-10-19T11:54:14.616Z,97625.67
2022-10-19T11:57:16.204Z,97631.02
2022-10-19T12:00:15.048Z,97625.32
2022-10-19T12:03:34.324Z,97627.59
2022-10-19T12:06:29.630Z,97623.98
2022-10-19T12:09:29.957Z,97621.78
2022-10-19T12:12:23.359Z,97613.73
2022-10-19T12:14:57.133Z,97608.39
2022-10-19T12:17:33.865Z,97604.55
2022-10-19T12:20:25.330Z,97600.17
2022-10-19T12:22:54.236Z,97601.02
2022-10-19T12:25:22.954Z,97599.61
2022-10-19T12:27:51.801Z,97597.98
2022-10-19T12:30:21.510Z,97595.80
2022-10-19T12:32:59.525Z,97593.50
2022-10-19T12:35:46.120Z,97593.33
2022-10-19T12:38:48.186Z,97597.84
2022-10-19T12:41:57.326Z,97603.71
2022-10-19T12:44:44.033Z,97603.20
2022-10-19T12:47:18.050Z,97604.66
2022-10-19T12:49:57.578Z,97599.48
2022-10-19T12:52:46.243Z,97592.41
2022-10-19T12:55:27.961Z,97595.83
2022-10-19T12:58:19.162Z,97593.84
2022-10-19T13:01:08.535Z,97594.70
2022-10-19T13:03:41.503Z,97591.72
2022-10-19T13:06:13.663Z,97590.36
2022-10-19T13:08:53.874Z,97591.37
2022-10-19T13:11:23.221Z,97593.14
2022-10-19T13:13:57.043Z,97599.59
2022-10-19T13:16:41.263Z,97599.19
2022-10-19T13:19:12.426Z,97597.46
2022-10-19T13:22:04.769Z,97596.16
2022-10-19T13:24:36.696Z,97598.59
2022-10-19T13:27:04.909Z,97607.14
2022-10-19T13:29:39.194Z,97614.60
2022-10-19T13:32:32.356Z,97616.10
2022-10-19T13:35:25.446Z,97619.67
2022-10-19T13:38:16.890Z,97621.42
2022-10-19T13:40:47.866Z,97615.55
2022-10-19T13:43:22.055Z,97615.95
2022-10-19T13:46:18.660Z,97618.02
2022-10-19T13:49:02.607Z,97620.75
2022-10-19T13:51:51.867Z,97624.94
2022-10-19T13:54:38.789Z,97621.99
2022-10-19T13:57:15.676Z,97620.30
2022-10-19T13:59:54.951Z,97623.02
2022-10-19T14:02:52.155Z,97625.69
2022-10-19T14:05:29.303Z,97630.35
2022-10-19T14:08:06.318Z,97627.52
2022-10-19T14:10:56.267Z,97631.26
2022-10-19T14:13:23.761Z,97637.72
2022-10-19T14:15:55.328Z,97642.23
2022-10-19T14:18:29.799Z,97646.52
2022-10-19T14:21:00.596Z,97643.67
2022-10-19T14:23:29.573Z,97644.27
2022-10-19T14:26:04.091Z,97646.84
2022-10-19T14:28:33.809Z,97653.04
2022-10-19T14:31:08.227Z,97654.80
2022-10-19T14:33:41.929Z,97654.59
2022-10-19T14:36:25.210Z,97651.14
2022-10-19T14:38:56.564Z,97646.61
2022-10-19T14:41:27.466Z,97638.94
2022-10-19T14:43:57.121Z,97635.38
2022-10-19T14:46:34.959Z,97636.34
2022-10-19T14:49:06.821Z,97638.65
2022-10-19T14:51:49.729Z,97636.94
2022-10-19T14:54:44.533Z,97633.81
2022-10-19T14:57:26.637Z,97633.40
2022-10-19T15:00:00.932Z,97627.82
2022-10-19T15:03:00.363Z,97630.20
2022-10-19T15:05:31.144Z,97627.20
2022-10-19T15:08:08.692Z,97620.33
2022-10-19T15:10:44.031Z,97623.94
2022-10-19T15:13:34.419Z,97628.74
2022-10-19T15:16:02.433Z,97627.64
2022-10-19T15:18:48.636Z,97625.91
2022-10-19T15:21:21.787Z,97621.02
2022-10-19T15:23:51.916Z,97623.28
2022-10-19T15:26:27.452Z,97623.32
2022-10-19T15:29:08.392Z,97625.28
2022-10-19T15:31:36.416Z,97623.27
2022-10-19T15:34:05.700Z,97624.99
2022-10-19T15:36:34.407Z,97626.35
2022-10-19T15:39:24.606Z,97625.69
2022-10-19T15:41:53.473Z,97625.71
2022-10-19T15:44:50.933Z,97626.38
2022-10-19T15:47:24.673Z,97627.45
2022-10-19T15:50:02.683Z,97628.46
2022-10-19T15:52:35.008Z,97632.98
2022-10-19T15:55:03.093Z,97636.84
2022-10-19T15:57:35.187Z,97637.25
2022-10-19T16:00:11.318Z,97640.57
2022-10-19T16:02:39.579Z,97647.06
2022-10-19T16:05:08.479Z,97644.46
2022-10-19T16:07:38.620Z,97644.73
2022-10-19T16:10:08.373Z,97650.35
2022-10-19T16:12:36.268Z,97653.48
2022-10-19T16:15:04.684Z,97655.96
2022-10-19T16:17:33.197Z,97654.84
2022-10-19T16:20:01.514Z,97657.81
2022-10-19T16:22:29.577Z,97664.06
2022-10-19T16:24:57.765Z,97664.55
2022-10-19T16:27:25.767Z,97667.13
2022-10-19T16:29:54.817Z,97670.02
2022-10-19T16:32:22.790Z,97673.14
2022-10-19T16:34:50.867Z,97675.79
2022-10-19T16:37:19.072Z,97678.44
2022-10-19T16:39:46.930Z,97683.96
2022-10-19T16:42:15.138Z,97687.10
2022-10-19T16:44:44.788Z,97686.34
2022-10-19T16:47:24.232Z,97694.30
2022-10-19T16:50:00.200Z,97692.76
2022-10-19T16:52:33.203Z,97694.60
2022-10-19T16:55:05.541Z,97692.21
2022-10-19T16:57:33.509Z,97695.98
2022-10-19T17:00:01.590Z,97701.08
2022-10-19T17:02:29.764Z,97697.94
2022-10-19T17:04:57.725Z,97697.62
2022-10-19T17:07:25.719Z,97700.17
2022-10-19T17:09:54.901Z,97703.60
2022-10-19T17:12:23.182Z,97706.13
2022-10-19T17:14:51.459Z,97703.23
2022-10-19T17:17:19.723Z,97707.42
2022-10-19T17:19:52.355Z,97708.39
2022-10-19T17:22:20.752Z,97711.09
2022-10-19T17:26:47.888Z,97713.95
2022-10-19T17:28:50.547Z,97712.41
2022-10-19T17:31:18.869Z,97710.35
2022-10-19T17:33:46.980Z,97706.02
2022-10-19T17:36:19.139Z,97702.89
2022-10-19T17:38:47.686Z,97702.30
2022-10-19T17:41:18.429Z,97703.92
2022-10-19T17:43:47.945Z,97706.52
2022-10-19T17:46:17.460Z,97713.52
2022-10-19T17:48:46.844Z,97720.27
2022-10-19T17:51:20.248Z,97725.86
2022-10-19T17:53:49.528Z,97724.88
2022-10-19T17:56:18.945Z,97729.88
2022-10-19T17:58:47.969Z,97734.66
2022-10-19T18:01:16.930Z,97736.55
2022-10-19T18:03:45.660Z,97743.66
2022-10-19T18:06:15.751Z,97742.91
2022-10-19T18:08:55.500Z,97743.58
2022-10-19T18:11:29.315Z,97742.11
2022-10-19T18:13:59.463Z,97737.77
2022-10-19T18:16:41.050Z,97735.41
2022-10-19T18:19:09.377Z,97736.77
2022-10-19T18:21:40.752Z,97738.33
2022-10-19T18:24:15.140Z,97733.33
2022-10-19T18:26:44.053Z,97733.33
2022-10-19T18:29:18.386Z,97739.11
2022-10-19T18:31:51.559Z,97748.94
2022-10-19T18:34:22.789Z,97748.42
2022-10-19T18:36:52.323Z,97746.35
2022-10-19T18:39:20.695Z,97750.38
2022-10-19T18:41:54.768Z,97748.94
2022-10-19T18:44:27.006Z,97750.90
2022-10-19T18:46:57.066Z,97749.71
2022-10-19T18:49:26.097Z,97757.08
2022-10-19T18:51:55.773Z,97758.46
2022-10-19T18:54:28.138Z,97761.86
2022-10-19T18:56:56.461Z,97763.45
2022-10-19T18:59:24.863Z,97765.90
2022-10-19T19:01:58.033Z,97768.94
2022-10-19T19:04:28.756Z,97775.08
2022-10-19T19:06:56.939Z,97776.18
2022-10-19T19:09:24.796Z,97778.52
2022-10-19T19:11:54.513Z,97780.69
2022-10-19T19:14:22.521Z,97781.91
2022-10-19T19:16:50.763Z,97784.21
2022-10-19T19:19:20.259Z,97790.08
2022-10-19T19:21:49.154Z,97794.11
2022-10-19T19:24:21.867Z,97793.73
2022-10-19T19:26:53.154Z,97789.38
2022-10-19T19:29:22.283Z,97786.34
2022-10-19T19:31:50.654Z,97791.89
2022-10-19T19:34:18.636Z,97801.52
2022-10-19T19:36:48.582Z,97802.77
2022-10-19T19:39:20.210Z,97806.59
2022-10-19T19:41:50.195Z,97802.98
2022-10-19T19:44:19.218Z,97805.65
2022-10-19T19:46:47.696Z,97805.05
2022-10-19T19:49:16.272Z,97804.36
2022-10-19T19:51:44.462Z,97807.55
2022-10-19T19:54:12.675Z,97812.85
2022-10-19T19:56:42.576Z,97818.38
2022-10-19T19:59:12.611Z,97825.96
2022-10-19T20:01:41.491Z,97827.52
2022-10-19T20:04:09.977Z,97825.60
2022-10-19T20:06:41.381Z,97831.27
2022-10-19T20:09:10.896Z,97835.77
2022-10-19T20:11:42.673Z,97839.21
2022-10-19T20:14:12.009Z,97838.52
2022-10-19T20:16:40.236Z,97838.31
2022-10-19T20:19:11.167Z,97835.79
2022-10-19T20:21:40.683Z,97832.39
2022-10-19T20:24:09.359Z,97822.95
2022-10-19T20:26:37.945Z,97825.52
2022-10-19T20:29:06.419Z,97826.02
2022-10-19T20:31:39.642Z,97830.30
2022-10-19T20:34:14.056Z,97829.69
2022-10-19T20:36:42.514Z,97833.81
2022-10-19T20:39:10.591Z,97834.70
2022-10-19T20:41:38.989Z,97833.41
2022-10-19T20:44:07.342Z,97830.73
2022-10-19T20:46:37.211Z,97830.85
2022-10-19T20:49:05.558Z,97836.36
2022-10-19T20:51:39.080Z,97833.71
2022-10-19T20:54:11.074Z,97838.54
2022-10-19T20:56:41.016Z,97842.09
2022-10-19T20:59:14.965Z,97847.02
2022-10-19T21:01:44.760Z,97853.17
2022-10-19T21:04:14.448Z,97855.11
2022-10-19T21:06:47.587Z,97858.17
2022-10-19T21:09:18.043Z,97860.63
2022-10-19T21:11:47.582Z,97856.89
2022-10-19T21:14:25.440Z,97855.36
2022-10-19T21:16:58.088Z,97852.95
2022-10-19T21:19:28.168Z,97845.66
2022-10-19T21:22:01.780Z,97846.14
2022-10-19T21:24:36.122Z,97847.38
2022-10-19T21:27:07.667Z,97843.36
2022-10-19T21:29:37.149Z,97842.88
2022-10-19T21:32:05.122Z,97847.33
2022-10-19T21:34:33.913Z,97846.91
2022-10-19T21:37:01.871Z,97844.10
2022-10-19T21:39:30.661Z,97843.91
2022-10-19T21:41:58.654Z,97839.53
2022-10-19T21:44:27.112Z,97837.32
2022-10-19T21:46:55.101Z,97842.59
2022-10-19T21:49:23.470Z,97844.06
2022-10-19T21:51:55.431Z,97842.33
2022-10-19T21:54:25.310Z,97842.63
2022-10-19T21:56:55.877Z,97842.52
2022-10-19T21:59:24.550Z,97845.91
2022-10-19T22:01:54.705Z,97844.46
2022-10-19T22:04:23.773Z,97852.73
2022-10-19T22:06:51.850Z,97854.64
2022-10-19T22:09:22.168Z,97860.29
2022-10-19T22:11:50.257Z,97863.97
2022-10-19T22:14:18.524Z,97874.45
2022-10-19T22:16:46.803Z,97877.27
2022-10-19T22:19:14.909Z,97877.52
2022-10-19T22:21:42.892Z,97879.01
2022-10-19T22:24:14.750Z,97876.69
2022-10-19T22:26:45.931Z,97877.10
2022-10-19T22:29:14.426Z,97880.95
2022-10-19T22:31:42.440Z,97881.73
2022-10-19T22:34:14.289Z,97881.11
2022-10-19T22:36:43.042Z,97885.38
2022-10-19T22:39:11.112Z,97888.44
2022-10-19T22:41:39.084Z,97886.12
2022-10-19T22:44:08.957Z,97882.58
2022-10-19T22:46:37.582Z,97884.52
2022-10-19T22:49:05.615Z,97883.45
2022-10-19T22:51:33.933Z,97882.05
2022-10-19T22:54:01.900Z,97882.51
2022-10-19T22:56:29.869Z,97882.48
2022-10-19T22:59:01.832Z,97882.63
2022-10-19T23:01:29.734Z,97883.08
2022-10-19T23:03:57.977Z,97887.19
2022-10-19T23:06:26.458Z,97885.18
2022-10-19T23:08:54.692Z,97884.23
2022-10-19T23:11:22.908Z,97886.28
2022-10-19T23:13:50.800Z,97886.09
2022-10-19T23:16:18.881Z,97884.91
2022-10-19T23:18:46.819Z,97895.84
2022-10-19T23:21:15.605Z,97896.88
2022-10-19T23:23:43.881Z,97897.72
2022-10-19T23:26:14.985Z,97903.12
2022-10-19T23:28:45.635Z,97908.37
2022-10-19T23:31:15.129Z,97908.18
2022-10-19T23:33:43.718Z,97908.38
2022-10-19T23:36:17.174Z,97907.51
2022-10-19T23:38:48.112Z,97912.54
2022-10-19T23:41:16.875Z,97914.65
2022-10-19T23:43:45.356Z,97911.25
2022-10-19T23:46:13.837Z,97911.42
2022-10-19T23:48:42.418Z,97914.42
2022-10-19T23:51:15.976Z,97915.34
2022-10-19T23:53:46.550Z,97920.48
2022-10-19T23:56:14.840Z,97922.27
2022-10-19T23:58:43.212Z,97923.09
